createdAt,value
2022-08-14T00:01:36.106Z,21.69
2022-08-14T00:04:03.224Z,21.70
2022-08-14T00:06:50.970Z,21.66
2022-08-14T00:09:17.692Z,21.68
2022-08-14T00:11:44.331Z,21.67
2022-08-14T00:14:17.092Z,21.66
2022-08-14T00:16:44.974Z,21.64
2022-08-14T00:19:19.139Z,21.61
2022-08-14T00:21:47.892Z,21.62
2022-08-14T00:24:23.165Z,21.64
2022-08-14T00:27:02.060Z,21.60
2022-08-14T00:29:33.247Z,21.62
2022-08-14T00:32:51.668Z,21.60
2022-08-14T00:34:54.406Z,21.57
2022-08-14T00:37:23.388Z,21.56
2022-08-14T00:39:51.100Z,21.52
2022-08-14T00:42:55.348Z,21.53
2022-08-14T00:45:10.000Z,21.50
2022-08-14T00:47:44.796Z,21.49
2022-08-14T00:50:17.815Z,21.47
2022-08-14T00:52:51.042Z,21.46
2022-08-14T00:55:19.892Z,21.44
2022-08-14T00:58:07.464Z,21.38
2022-08-14T01:00:43.065Z,21.39
2022-08-14T01:03:19.246Z,21.39
2022-08-14T01:05:51.718Z,21.38
2022-08-14T01:08:57.857Z,21.35
2022-08-14T01:11:08.383Z,21.31
2022-08-14T01:13:42.238Z,21.31
2022-08-14T01:16:14.814Z,21.28
2022-08-14T01:19:02.403Z,21.25
2022-08-14T01:21:38.643Z,21.22
2022-08-14T01:24:28.890Z,21.20
2022-08-14T01:27:00.349Z,21.18
2022-08-14T01:29:58.462Z,21.16
2022-08-14T01:32:23.316Z,21.14
2022-08-14T01:35:19.977Z,21.13
2022-08-14T01:37:54.590Z,21.12
2022-08-14T01:40:25.542Z,21.13
2022-08-14T01:43:00.119Z,21.13
2022-08-14T01:45:31.324Z,21.12
2022-08-14T01:48:07.350Z,21.05
2022-08-14T01:50:41.939Z,21.09
2022-08-14T01:53:09.638Z,21.08
2022-08-14T01:55:38.592Z,21.09
2022-08-14T01:58:20.226Z,21.08
2022-08-14T02:00:55.000Z,21.07
2022-08-14T02:03:31.278Z,21.06
2022-08-14T02:06:04.074Z,21.04
2022-08-14T02:08:53.347Z,20.97
2022-08-14T02:11:23.904Z,20.97
2022-08-14T02:14:07.387Z,20.93
2022-08-14T02:16:54.209Z,20.91
2022-08-14T02:19:24.199Z,20.89
2022-08-14T02:21:54.567Z,20.86
2022-08-14T02:24:38.880Z,20.83
2022-08-14T02:28:25.514Z,20.74
2022-08-14T02:30:00.809Z,20.73
2022-08-14T02:32:36.756Z,20.72
2022-08-14T02:35:17.962Z,20.70
2022-08-14T02:37:49.742Z,20.69
2022-08-14T02:40:32.495Z,20.69
2022-08-14T02:43:03.618Z,20.66
2022-08-14T02:45:37.885Z,20.66
2022-08-14T02:49:04.066Z,20.66
2022-08-14T02:51:00.533Z,20.66
2022-08-14T02:53:29.426Z,20.66
2022-08-14T02:55:56.714Z,20.64
2022-08-14T02:58:31.225Z,20.65
2022-08-14T03:00:59.645Z,20.65
2022-08-14T03:03:27.976Z,20.65
2022-08-14T03:05:58.625Z,20.65
2022-08-14T03:08:33.249Z,20.67
2022-08-14T03:11:07.748Z,20.66
2022-08-14T03:13:41.330Z,20.66
2022-08-14T03:16:20.105Z,20.66
2022-08-14T03:18:59.877Z,20.67
2022-08-14T03:21:27.283Z,20.67
2022-08-14T03:24:16.346Z,20.67
2022-08-14T03:26:49.848Z,20.66
2022-08-14T03:29:24.683Z,20.66
2022-08-14T03:31:53.347Z,20.64
2022-08-14T03:34:24.566Z,20.65
2022-08-14T03:37:38.050Z,20.65
2022-08-14T03:39:59.226Z,20.64
2022-08-14T03:42:35.708Z,20.65
2022-08-14T03:45:27.428Z,20.67
2022-08-14T03:47:58.408Z,20.67
2022-08-14T03:50:27.708Z,20.64
2022-08-14T03:53:02.766Z,20.68
2022-08-14T03:55:30.490Z,20.69
2022-08-14T03:57:57.986Z,20.69
2022-08-14T04:00:42.783Z,20.75
2022-08-14T04:03:17.941Z,20.78
2022-08-14T04:05:49.058Z,20.84
2022-08-14T04:08:29.810Z,20.85
2022-08-14T04:11:01.605Z,20.90
2022-08-14T04:13:31.778Z,20.91
2022-08-14T04:16:06.857Z,20.96
2022-08-14T04:18:45.861Z,21.01
2022-08-14T04:21:13.417Z,21.02
2022-08-14T04:23:42.658Z,21.03
2022-08-14T04:26:14.797Z,21.05
2022-08-14T04:29:07.466Z,21.10
2022-08-14T04:32:58.632Z,21.11
2022-08-14T04:34:24.028Z,21.16
2022-08-14T04:37:13.545Z,21.20
2022-08-14T04:40:08.616Z,21.22
2022-08-14T04:42:54.312Z,21.28
2022-08-14T04:45:23.823Z,21.33
2022-08-14T04:48:10.401Z,21.34
2022-08-14T04:50:45.479Z,21.38
2022-08-14T04:53:26.189Z,21.43
2022-08-14T04:56:01.329Z,21.46
2022-08-14T04:58:32.560Z,21.49
2022-08-14T05:01:02.138Z,21.53
2022-08-14T05:03:31.904Z,21.54
2022-08-14T05:06:00.696Z,21.58
2022-08-14T05:08:32.430Z,21.61
2022-08-14T05:11:15.613Z,21.64
2022-08-14T05:16:31.732Z,21.70
2022-08-14T05:19:25.052Z,21.72
2022-08-14T05:21:56.200Z,21.77
2022-08-14T05:24:27.727Z,21.79
2022-08-14T05:26:54.481Z,21.85
2022-08-14T05:29:21.905Z,21.88
2022-08-14T05:31:50.543Z,21.92
2022-08-14T05:34:28.953Z,21.96
2022-08-14T05:37:02.721Z,21.98
2022-08-14T05:39:31.637Z,22.01
2022-08-14T05:41:59.021Z,22.02
2022-08-14T05:44:30.127Z,22.05
2022-08-14T05:46:58.597Z,22.05
2022-08-14T05:49:32.864Z,22.06
2022-08-14T05:52:03.612Z,22.06
2022-08-14T05:54:36.373Z,22.09
2022-08-14T05:57:04.926Z,22.09
2022-08-14T05:59:38.848Z,22.13
2022-08-14T06:02:07.107Z,22.16
2022-08-14T06:04:33.717Z,22.18
2022-08-14T06:07:00.304Z,22.19
2022-08-14T06:09:28.618Z,22.22
2022-08-14T06:12:01.948Z,22.25
2022-08-14T06:14:28.537Z,22.31
2022-08-14T06:16:55.223Z,22.33
2022-08-14T06:19:23.080Z,22.38
2022-08-14T06:21:58.091Z,22.43
2022-08-14T06:24:26.120Z,22.45
2022-08-14T06:26:56.690Z,22.48
2022-08-14T06:29:33.371Z,22.51
2022-08-14T06:32:38.087Z,22.55
2022-08-14T06:35:02.244Z,22.59
2022-08-14T06:37:47.007Z,22.64
2022-08-14T06:40:25.722Z,22.69
2022-08-14T06:42:57.006Z,22.77
2022-08-14T06:45:27.917Z,22.84
2022-08-14T06:47:54.646Z,22.90
2022-08-14T06:50:27.841Z,22.99
2022-08-14T06:52:56.204Z,23.08
2022-08-14T06:55:26.546Z,23.16
2022-08-14T06:57:55.045Z,23.21
2022-08-14T07:00:31.225Z,23.27
2022-08-14T07:03:17.040Z,23.34
2022-08-14T07:05:57.843Z,23.39
2022-08-14T07:08:31.248Z,23.48
2022-08-14T07:11:00.987Z,23.52
2022-08-14T07:13:28.496Z,23.56
2022-08-14T07:15:58.642Z,23.59
2022-08-14T07:18:33.715Z,23.60
2022-08-14T07:21:04.573Z,23.64
2022-08-14T07:23:32.240Z,23.66
2022-08-14T07:26:00.407Z,23.68
2022-08-14T07:28:35.950Z,23.73
2022-08-14T07:31:11.864Z,23.77
2022-08-14T07:33:50.197Z,23.80
2022-08-14T07:36:27.036Z,23.83
2022-08-14T07:39:03.329Z,23.89
2022-08-14T07:41:39.170Z,23.96
2022-08-14T07:44:32.827Z,24.02
2022-08-14T07:46:58.177Z,24.12
2022-08-14T07:49:25.554Z,24.14
2022-08-14T07:51:53.006Z,24.24
2022-08-14T07:54:23.231Z,24.28
2022-08-14T07:57:12.367Z,24.33
2022-08-14T07:59:43.483Z,24.38
2022-08-14T08:02:18.694Z,24.41
2022-08-14T08:04:55.384Z,24.42
2022-08-14T08:07:29.423Z,24.45
2022-08-14T08:09:59.600Z,24.49
2022-08-14T08:12:30.799Z,24.52
2022-08-14T08:15:03.052Z,24.55
2022-08-14T08:17:34.361Z,24.59
2022-08-14T08:20:05.595Z,24.62
2022-08-14T08:22:35.545Z,24.65
2022-08-14T08:25:05.531Z,24.71
2022-08-14T08:27:44.727Z,24.78
2022-08-14T08:30:12.405Z,24.84
2022-08-14T08:32:41.413Z,24.91
2022-08-14T08:35:46.434Z,25.01
2022-08-14T08:39:17.445Z,25.09
2022-08-14T08:41:09.602Z,25.18
2022-08-14T08:43:39.072Z,25.25
2022-08-14T08:46:21.191Z,25.31
2022-08-14T08:51:33.479Z,25.42
2022-08-14T08:54:04.464Z,25.46
2022-08-14T08:56:44.885Z,25.48
2022-08-14T08:59:27.310Z,25.49
2022-08-14T09:02:01.442Z,25.53
2022-08-14T09:04:45.292Z,25.57
2022-08-14T09:07:26.184Z,25.60
2022-08-14T09:09:59.090Z,25.68
2022-08-14T09:12:33.425Z,25.74
2022-08-14T09:15:12.062Z,25.82
2022-08-14T09:17:41.588Z,25.87
2022-08-14T09:20:11.744Z,25.94
2022-08-14T09:22:47.813Z,25.99
2022-08-14T09:25:19.504Z,26.04
2022-08-14T09:27:47.107Z,26.09
2022-08-14T09:30:32.724Z,26.12
2022-08-14T09:33:10.804Z,26.20
2022-08-14T09:35:56.626Z,26.24
2022-08-14T09:38:47.601Z,26.28
2022-08-14T09:41:23.450Z,26.31
2022-08-14T09:44:04.579Z,26.36
2022-08-14T09:46:34.338Z,26.40
2022-08-14T09:49:01.650Z,26.46
2022-08-14T09:51:32.690Z,26.52
2022-08-14T09:54:22.721Z,26.62
2022-08-14T09:56:51.552Z,26.76
2022-08-14T09:59:27.991Z,26.86
2022-08-14T10:01:57.159Z,26.97
2022-08-14T10:04:36.057Z,27.05
2022-08-14T10:07:08.351Z,27.13
2022-08-14T10:09:59.440Z,27.19
2022-08-14T10:12:44.835Z,27.23
2022-08-14T10:15:32.804Z,27.30
2022-08-14T10:18:13.249Z,27.32
2022-08-14T10:20:57.803Z,27.36
2022-08-14T10:23:39.352Z,27.39
2022-08-14T10:26:08.780Z,27.40
2022-08-14T10:29:19.050Z,27.47
2022-08-14T10:31:44.466Z,27.55
2022-08-14T10:34:18.478Z,27.66
2022-08-14T10:36:49.961Z,27.75
2022-08-14T10:39:25.954Z,27.84
2022-08-14T10:42:16.397Z,27.93
2022-08-14T10:44:49.189Z,28.03
2022-08-14T10:47:39.769Z,28.11
2022-08-14T10:50:12.231Z,28.19
2022-08-14T10:52:42.602Z,28.25
2022-08-14T10:55:19.290Z,28.30
2022-08-14T10:57:56.990Z,28.32
2022-08-14T11:00:30.406Z,28.34
2022-08-14T11:03:11.105Z,28.36
2022-08-14T11:05:49.092Z,28.35
2022-08-14T11:08:31.639Z,28.41
2022-08-14T11:11:03.579Z,28.46
2022-08-14T11:13:32.007Z,28.52
2022-08-14T11:16:01.231Z,28.60
2022-08-14T11:18:35.923Z,28.71
2022-08-14T11:21:08.209Z,28.85
2022-08-14T11:23:43.777Z,28.98
2022-08-14T11:26:12.208Z,29.23
2022-08-14T11:28:48.581Z,29.42
2022-08-14T11:31:25.618Z,29.63
2022-08-14T11:33:55.445Z,29.79
2022-08-14T11:36:23.981Z,29.91
2022-08-14T11:39:02.289Z,29.99
2022-08-14T11:41:39.194Z,30.03
2022-08-14T11:44:17.450Z,30.05
2022-08-14T11:47:05.938Z,30.11
2022-08-14T11:49:34.124Z,30.16
2022-08-14T11:52:01.705Z,30.21
2022-08-14T11:54:34.784Z,30.27
2022-08-14T11:57:02.394Z,30.38
2022-08-14T11:59:33.620Z,30.50
2022-08-14T12:03:00.281Z,30.63
2022-08-14T12:05:03.950Z,30.71
2022-08-14T12:07:30.726Z,30.82
2022-08-14T12:09:59.444Z,30.96
2022-08-14T12:12:35.977Z,31.14
2022-08-14T12:15:14.097Z,31.28
2022-08-14T12:17:47.704Z,31.37
2022-08-14T12:20:30.292Z,31.47
2022-08-14T12:23:02.091Z,31.66
2022-08-14T12:25:29.348Z,31.79
2022-08-14T12:27:59.465Z,31.96
2022-08-14T12:30:43.564Z,32.08
2022-08-14T12:33:33.376Z,32.18
2022-08-14T12:36:08.035Z,32.25
2022-08-14T12:38:43.821Z,32.34
2022-08-14T12:41:20.951Z,32.41
2022-08-14T12:43:59.806Z,32.51
2022-08-14T12:46:40.650Z,32.62
2022-08-14T12:49:16.154Z,32.67
2022-08-14T12:51:55.347Z,32.73
2022-08-14T12:54:27.791Z,32.78
2022-08-14T12:57:07.998Z,32.84
2022-08-14T12:59:37.119Z,32.92
2022-08-14T13:02:26.487Z,33.03
2022-08-14T13:04:56.041Z,33.09
2022-08-14T13:07:26.352Z,33.24
2022-08-14T13:09:58.380Z,33.42
2022-08-14T13:12:34.966Z,33.65
2022-08-14T13:15:14.824Z,33.93
2022-08-14T13:17:48.180Z,34.23
2022-08-14T13:20:23.980Z,34.65
2022-08-14T13:22:54.969Z,34.98
2022-08-14T13:25:27.634Z,35.42
2022-08-14T13:27:57.802Z,35.83
2022-08-14T13:30:26.415Z,36.23
2022-08-14T13:32:54.867Z,36.67
2022-08-14T13:35:25.494Z,37.11
2022-08-14T13:37:53.496Z,37.59
2022-08-14T13:40:26.210Z,37.89
2022-08-14T13:42:56.751Z,37.94
2022-08-14T13:45:24.125Z,37.74
2022-08-14T13:48:01.381Z,37.39
2022-08-14T13:50:27.962Z,36.95
2022-08-14T13:52:58.240Z,36.60
2022-08-14T13:55:29.872Z,36.20
2022-08-14T13:58:03.358Z,35.75
2022-08-14T14:00:35.589Z,35.38
2022-08-14T14:03:08.629Z,35.03
2022-08-14T14:05:52.210Z,34.71
2022-08-14T14:08:45.817Z,34.48
2022-08-14T14:11:15.780Z,34.30
2022-08-14T14:13:46.510Z,34.15
2022-08-14T14:16:15.270Z,33.92
2022-08-14T14:18:55.801Z,33.62
2022-08-14T14:21:28.486Z,33.31
2022-08-14T14:23:56.354Z,33.08
2022-08-14T14:26:24.715Z,32.98
2022-08-14T14:28:57.194Z,33.17
2022-08-14T14:31:29.664Z,33.60
2022-08-14T14:34:07.535Z,34.04
2022-08-14T14:36:52.577Z,34.21
2022-08-14T14:39:28.808Z,34.12
2022-08-14T14:41:59.687Z,33.97
2022-08-14T14:44:42.557Z,33.76
2022-08-14T14:47:11.247Z,33.59
2022-08-14T14:49:51.293Z,33.50
2022-08-14T14:52:27.534Z,33.41
2022-08-14T14:54:59.251Z,33.47
2022-08-14T14:57:34.801Z,33.42
2022-08-14T15:00:02.454Z,33.34
2022-08-14T15:02:38.165Z,33.26
2022-08-14T15:05:08.135Z,33.32
2022-08-14T15:07:38.654Z,33.52
2022-08-14T15:10:28.247Z,33.71
2022-08-14T15:12:57.725Z,33.72
2022-08-14T15:15:27.389Z,33.58
2022-08-14T15:17:54.589Z,33.38
2022-08-14T15:20:30.559Z,33.06
2022-08-14T15:23:00.920Z,32.66
2022-08-14T15:25:36.440Z,32.19
2022-08-14T15:28:03.527Z,31.80
2022-08-14T15:30:32.076Z,31.44
2022-08-14T15:32:59.559Z,31.10
2022-08-14T15:35:28.151Z,30.70
2022-08-14T15:38:07.865Z,30.35
2022-08-14T15:40:43.379Z,30.03
2022-08-14T15:43:12.765Z,29.76
2022-08-14T15:45:40.749Z,29.53
2022-08-14T15:48:08.259Z,29.37
2022-08-14T15:50:44.599Z,29.14
2022-08-14T15:53:15.787Z,28.89
2022-08-14T15:55:43.739Z,28.74
2022-08-14T15:58:14.515Z,28.55
2022-08-14T16:00:59.731Z,28.44
2022-08-14T16:03:35.798Z,28.34
2022-08-14T16:06:10.923Z,28.26
2022-08-14T16:08:45.469Z,28.17
2022-08-14T16:11:14.952Z,28.09
2022-08-14T16:13:44.377Z,28.03
2022-08-14T16:16:34.344Z,27.94
2022-08-14T16:19:09.810Z,27.86
2022-08-14T16:21:39.650Z,27.80
2022-08-14T16:24:07.916Z,27.73
2022-08-14T16:26:54.680Z,27.68
2022-08-14T16:29:29.968Z,27.62
2022-08-14T16:31:58.686Z,27.56
2022-08-14T16:34:45.031Z,27.50
2022-08-14T16:37:16.493Z,27.40
2022-08-14T16:39:43.776Z,27.34
2022-08-14T16:43:02.887Z,27.26
2022-08-14T16:44:59.812Z,27.16
2022-08-14T16:47:32.030Z,27.09
2022-08-14T16:50:04.393Z,27.03
2022-08-14T16:52:44.703Z,26.96
2022-08-14T16:55:13.942Z,26.92
2022-08-14T16:57:51.901Z,26.85
2022-08-14T17:00:29.215Z,26.79
2022-08-14T17:03:08.576Z,26.74
2022-08-14T17:05:43.043Z,26.66
2022-08-14T17:08:32.178Z,26.59
2022-08-14T17:11:04.816Z,26.53
2022-08-14T17:13:59.896Z,26.43
2022-08-14T17:16:26.094Z,26.34
2022-08-14T17:19:01.100Z,26.30
2022-08-14T17:21:38.429Z,26.21
2022-08-14T17:24:57.288Z,26.11
2022-08-14T17:27:04.328Z,26.00
2022-08-14T17:29:35.103Z,25.90
2022-08-14T17:32:28.278Z,25.82
2022-08-14T17:34:57.580Z,25.73
2022-08-14T17:37:35.538Z,25.59
2022-08-14T17:40:22.719Z,25.44
2022-08-14T17:43:02.229Z,25.35
2022-08-14T17:45:41.102Z,25.23
2022-08-14T17:49:10.567Z,25.12
2022-08-14T17:51:23.229Z,24.97
2022-08-14T17:53:53.322Z,24.85
2022-08-14T17:56:29.002Z,24.78
2022-08-14T17:59:05.723Z,24.68
2022-08-14T18:01:37.324Z,24.62
2022-08-14T18:04:25.062Z,24.53
2022-08-14T18:07:05.968Z,24.51
2022-08-14T18:09:57.335Z,24.44
2022-08-14T18:12:36.606Z,24.39
2022-08-14T18:15:16.861Z,24.32
2022-08-14T18:17:53.262Z,24.24
2022-08-14T18:21:23.512Z,24.22
2022-08-14T18:23:13.568Z,24.13
2022-08-14T18:25:50.422Z,24.12
2022-08-14T18:28:48.164Z,24.09
2022-08-14T18:31:20.103Z,24.06
2022-08-14T18:33:58.329Z,24.00
2022-08-14T18:36:51.246Z,23.98
2022-08-14T18:39:27.167Z,23.93
2022-08-14T18:41:57.989Z,23.87
2022-08-14T18:44:49.840Z,23.87
2022-08-14T18:47:20.005Z,23.84
2022-08-14T18:50:00.479Z,23.82
2022-08-14T18:52:29.682Z,23.80
2022-08-14T18:54:59.602Z,23.75
2022-08-14T18:57:27.189Z,23.70
2022-08-14T19:00:32.064Z,23.68
2022-08-14T19:03:01.377Z,23.63
2022-08-14T19:05:47.800Z,23.59
2022-08-14T19:08:18.546Z,23.52
2022-08-14T19:10:51.730Z,23.47
2022-08-14T19:13:27.762Z,23.46
2022-08-14T19:16:23.275Z,23.41
2022-08-14T19:19:01.090Z,23.37
2022-08-14T19:21:38.429Z,23.34
2022-08-14T19:24:27.986Z,23.31
2022-08-14T19:27:22.911Z,23.27
2022-08-14T19:30:11.216Z,23.22
2022-08-14T19:32:51.095Z,23.19
2022-08-14T19:35:22.827Z,23.16
2022-08-14T19:37:54.186Z,23.14
2022-08-14T19:40:34.776Z,23.14
2022-08-14T19:43:06.314Z,23.13
2022-08-14T19:45:33.858Z,23.09
2022-08-14T19:48:01.486Z,23.07
2022-08-14T19:50:40.881Z,23.05
2022-08-14T19:53:16.569Z,23.02
2022-08-14T19:55:57.623Z,22.99
2022-08-14T19:58:54.013Z,22.96
2022-08-14T20:01:36.658Z,22.90
2022-08-14T20:04:07.730Z,22.91
2022-08-14T20:06:46.694Z,22.86
2022-08-14T20:11:06.265Z,22.87
2022-08-14T20:12:04.663Z,22.87
2022-08-14T20:14:37.021Z,22.85
2022-08-14T20:17:06.947Z,22.80
2022-08-14T20:19:37.539Z,22.82
2022-08-14T20:22:36.408Z,22.78
2022-08-14T20:24:55.484Z,22.77
2022-08-14T20:27:34.046Z,22.80
2022-08-14T20:30:29.757Z,22.81
2022-08-14T20:33:02.664Z,22.78
2022-08-14T20:35:52.338Z,22.75
2022-08-14T20:38:30.776Z,22.73
2022-08-14T20:41:05.744Z,22.70
2022-08-14T20:43:54.002Z,22.69
2022-08-14T20:46:29.757Z,22.67
2022-08-14T20:49:00.880Z,22.62
2022-08-14T20:51:36.470Z,22.59
2022-08-14T20:54:06.241Z,22.58
2022-08-14T20:56:36.624Z,22.52
2022-08-14T20:59:25.457Z,22.47
2022-08-14T21:01:59.516Z,22.47
2022-08-14T21:04:38.020Z,22.45
2022-08-14T21:07:35.341Z,22.41
2022-08-14T21:10:35.848Z,22.38
2022-08-14T21:13:26.100Z,22.34
2022-08-14T21:15:57.859Z,22.31
2022-08-14T21:18:47.387Z,22.29
2022-08-14T21:21:18.101Z,22.28
2022-08-14T21:23:55.407Z,22.25
2022-08-14T21:26:33.253Z,22.22
2022-08-14T21:29:14.347Z,22.17
2022-08-14T21:31:42.333Z,22.14
2022-08-14T21:34:27.169Z,22.14
2022-08-14T21:36:56.125Z,22.12
2022-08-14T21:39:24.812Z,22.06
2022-08-14T21:41:59.155Z,22.05
2022-08-14T21:44:42.840Z,22.06
2022-08-14T21:47:13.136Z,22.05
2022-08-14T21:49:41.217Z,22.03
2022-08-14T21:52:50.678Z,22.01
2022-08-14T21:55:13.258Z,21.95
2022-08-14T21:58:46.312Z,21.96
2022-08-14T22:00:39.403Z,21.93
2022-08-14T22:03:17.190Z,21.89
2022-08-14T22:05:45.958Z,21.89
2022-08-14T22:08:14.011Z,21.85
2022-08-14T22:10:46.345Z,21.85
2022-08-14T22:13:18.399Z,21.82
2022-08-14T22:15:49.721Z,21.76
2022-08-14T22:18:20.717Z,21.70
2022-08-14T22:20:53.893Z,21.67
2022-08-14T22:23:24.807Z,21.67
2022-08-14T22:25:53.619Z,21.64
2022-08-14T22:28:25.499Z,21.62
2022-08-14T22:30:55.197Z,21.59
2022-08-14T22:33:30.969Z,21.53
2022-08-14T22:36:00.302Z,21.54
2022-08-14T22:38:37.572Z,21.52
2022-08-14T22:41:25.511Z,21.51
2022-08-14T22:43:54.834Z,21.50
2022-08-14T22:46:21.513Z,21.44
2022-08-14T22:48:49.361Z,21.46
2022-08-14T22:51:18.735Z,21.46
2022-08-14T22:53:48.411Z,21.44
2022-08-14T22:56:20.216Z,21.42
2022-08-14T22:58:49.955Z,21.39
2022-08-14T23:01:56.574Z,21.38
2022-08-14T23:04:35.120Z,21.34
2022-08-14T23:07:21.758Z,21.31
2022-08-14T23:10:31.269Z,21.32
2022-08-14T23:12:54.842Z,21.30
2022-08-14T23:15:22.806Z,21.29
2022-08-14T23:17:49.506Z,21.25
2022-08-14T23:20:20.364Z,21.22
2022-08-14T23:22:51.378Z,21.24
2022-08-14T23:25:20.061Z,21.21
2022-08-14T23:28:06.926Z,21.20
2022-08-14T23:30:55.246Z,21.18
2022-08-14T23:33:22.041Z,21.17
2022-08-14T23:35:58.800Z,21.15
2022-08-14T23:38:30.534Z,21.15
2022-08-14T23:41:02.348Z,21.14
2022-08-14T23:43:31.419Z,21.09
2022-08-14T23:45:59.007Z,21.12
2022-08-14T23:48:28.296Z,21.09
2022-08-14T23:50:55.726Z,21.09
2022-08-14T23:53:47.441Z,21.10
2022-08-14T23:56:16.520Z,21.08
2022-08-14T23:58:49.287Z,21.05
